createdAt,value
2022-12-24T00:00:30.574Z,5.80
2022-12-24T00:03:16.278Z,6.72
2022-12-24T00:06:10.132Z,5.60
2022-12-24T00:08:55.763Z,5.57
2022-12-24T00:11:41.373Z,6.28
2022-12-24T00:14:26.779Z,7.20
2022-12-24T00:17:12.354Z,6.97
2022-12-24T00:19:58.113Z,6.25
2022-12-24T00:22:43.237Z,6.43
2022-12-24T00:25:28.727Z,6.07
2022-12-24T00:28:15.044Z,5.63
2022-12-24T00:31:00.826Z,7.20
2022-12-24T00:33:47.843Z,5.75
2022-12-24T00:36:33.099Z,6.80
2022-12-24T00:39:18.933Z,6.47
2022-12-24T00:42:04.414Z,5.78
2022-12-24T00:44:49.774Z,7.80
2022-12-24T00:47:35.460Z,6.20
2022-12-24T00:50:20.970Z,4.95
2022-12-24T00:53:06.430Z,7.80
2022-12-24T00:55:51.900Z,4.75
2022-12-24T00:58:37.394Z,6.97
2022-12-24T01:01:24.049Z,5.53
2022-12-24T01:04:35.205Z,5.78
2022-12-24T01:07:21.001Z,5.32
2022-12-24T01:10:07.681Z,8.18
2022-12-24T01:12:52.895Z,5.20
2022-12-24T01:15:38.179Z,6.22
2022-12-24T01:18:24.348Z,7.25
2022-12-24T01:21:09.812Z,5.50
2022-12-24T01:23:55.082Z,5.63
2022-12-24T01:26:40.809Z,4.35
2022-12-24T01:29:26.085Z,6.85
2022-12-24T01:32:11.668Z,5.25
2022-12-24T01:34:57.228Z,8.52
2022-12-24T01:37:42.946Z,6.47
2022-12-24T01:40:46.840Z,6.22
2022-12-24T01:43:33.656Z,6.43
2022-12-24T01:46:31.715Z,6.00
2022-12-24T01:49:18.297Z,5.45
2022-12-24T01:52:09.180Z,5.80
2022-12-24T01:55:00.275Z,6.10
2022-12-24T01:57:58.949Z,5.95
2022-12-24T02:00:44.920Z,7.03
2022-12-24T02:03:30.510Z,7.30
2022-12-24T02:06:18.775Z,6.57
2022-12-24T02:09:04.232Z,6.05
2022-12-24T02:11:49.827Z,6.47
2022-12-24T02:14:37.296Z,6.20
2022-12-24T02:17:56.562Z,6.97
2022-12-24T02:21:05.262Z,7.00
2022-12-24T02:24:32.134Z,8.95
2022-12-24T02:27:38.604Z,8.02
2022-12-24T02:30:34.668Z,7.03
2022-12-24T02:33:31.193Z,8.48
2022-12-24T02:36:47.087Z,8.43
2022-12-24T02:39:53.870Z,6.38
2022-12-24T02:42:42.984Z,6.60
2022-12-24T02:45:32.069Z,7.68
2022-12-24T02:48:18.385Z,6.72
2022-12-24T02:51:09.419Z,6.80
2022-12-24T02:53:54.697Z,7.43
2022-12-24T02:56:53.593Z,6.10
2022-12-24T03:00:00.655Z,7.00
2022-12-24T03:02:53.225Z,6.03
2022-12-24T03:06:43.896Z,6.45
2022-12-24T03:09:55.846Z,6.50
2022-12-24T03:13:12.921Z,5.90
2022-12-24T03:15:58.957Z,5.90
2022-12-24T03:18:47.944Z,5.88
2022-12-24T03:21:35.852Z,5.88
2022-12-24T03:24:21.296Z,6.93
2022-12-24T03:27:08.955Z,6.05
2022-12-24T03:29:54.969Z,6.28
2022-12-24T03:32:40.669Z,7.47
2022-12-24T03:35:26.162Z,8.80
2022-12-24T03:38:11.476Z,6.97
2022-12-24T03:40:56.949Z,8.63
2022-12-24T03:43:42.679Z,6.97
2022-12-24T03:46:28.722Z,5.10
2022-12-24T03:49:13.926Z,7.03
2022-12-24T03:51:59.887Z,6.03
2022-12-24T03:54:45.288Z,6.57
2022-12-24T03:57:30.797Z,5.63
2022-12-24T04:00:17.257Z,5.45
2022-12-24T04:03:02.656Z,6.65
2022-12-24T04:05:47.949Z,6.22
2022-12-24T04:08:33.948Z,5.72
2022-12-24T04:11:19.318Z,6.75
2022-12-24T04:14:04.765Z,6.55
2022-12-24T04:16:50.101Z,6.25
2022-12-24T04:19:36.367Z,6.53
2022-12-24T04:22:21.841Z,5.32
2022-12-24T04:25:07.879Z,6.50
2022-12-24T04:27:53.304Z,4.82
2022-12-24T04:30:39.683Z,5.75
2022-12-24T04:33:25.248Z,4.80
2022-12-24T04:36:14.303Z,4.65
2022-12-24T04:38:59.803Z,6.93
2022-12-24T04:41:45.197Z,5.80
2022-12-24T04:44:30.661Z,4.15
2022-12-24T04:47:16.473Z,5.53
2022-12-24T04:50:02.352Z,5.75
2022-12-24T04:52:47.769Z,4.72
2022-12-24T04:55:33.302Z,5.85
2022-12-24T04:58:18.660Z,4.82
2022-12-24T05:01:05.572Z,3.72
2022-12-24T05:03:51.706Z,4.10
2022-12-24T05:06:37.265Z,5.45
2022-12-24T05:09:22.888Z,4.25
2022-12-24T05:12:08.439Z,4.22
2022-12-24T05:14:53.772Z,3.67
2022-12-24T05:17:39.267Z,3.47
2022-12-24T05:20:24.973Z,3.78
2022-12-24T05:23:38.007Z,5.80
2022-12-24T05:26:37.445Z,3.70
2022-12-24T05:29:23.097Z,6.25
2022-12-24T05:32:08.543Z,5.63
2022-12-24T05:34:53.771Z,4.72
2022-12-24T05:37:39.212Z,4.80
2022-12-24T05:40:24.859Z,4.60
2022-12-24T05:43:10.088Z,4.13
2022-12-24T05:46:03.539Z,4.53
2022-12-24T05:48:50.993Z,3.90
2022-12-24T05:51:36.546Z,4.35
2022-12-24T05:54:21.959Z,6.97
2022-12-24T05:57:08.175Z,4.47
2022-12-24T05:59:53.339Z,5.00
2022-12-24T06:02:39.005Z,4.88
2022-12-24T06:05:24.506Z,3.85
2022-12-24T06:08:10.197Z,4.75
2022-12-24T06:11:00.865Z,4.65
2022-12-24T06:13:46.158Z,4.15
2022-12-24T06:16:31.503Z,5.63
2022-12-24T06:19:16.928Z,3.80
2022-12-24T06:22:02.605Z,3.95
2022-12-24T06:24:48.183Z,4.75
2022-12-24T06:27:33.801Z,4.65
2022-12-24T06:30:19.184Z,5.47
2022-12-24T06:33:04.815Z,4.13
2022-12-24T06:35:50.305Z,4.05
2022-12-24T06:38:35.754Z,6.30
2022-12-24T06:41:21.987Z,5.32
2022-12-24T06:44:08.627Z,5.60
2022-12-24T06:46:53.939Z,5.82
2022-12-24T06:49:39.393Z,7.05
2022-12-24T06:52:25.312Z,4.57
2022-12-24T06:55:11.017Z,6.38
2022-12-24T06:57:56.606Z,7.53
2022-12-24T07:00:42.223Z,4.00
2022-12-24T07:03:27.826Z,4.25
2022-12-24T07:06:20.588Z,5.65
2022-12-24T07:09:10.228Z,4.85
2022-12-24T07:11:55.625Z,6.28
2022-12-24T07:14:41.013Z,4.90
2022-12-24T07:17:26.638Z,4.32
2022-12-24T07:20:16.202Z,4.10
2022-12-24T07:23:02.002Z,5.55
2022-12-24T07:25:47.791Z,4.97
2022-12-24T07:28:33.531Z,4.65
2022-12-24T07:31:19.049Z,5.75
2022-12-24T07:34:04.585Z,3.60
2022-12-24T07:36:50.244Z,5.07
2022-12-24T07:39:35.986Z,5.03
2022-12-24T07:42:21.586Z,6.55
2022-12-24T07:45:08.001Z,4.80
2022-12-24T07:47:53.397Z,7.03
2022-12-24T07:50:39.123Z,5.05
2022-12-24T07:53:26.771Z,7.03
2022-12-24T07:56:13.211Z,5.22
2022-12-24T07:58:58.842Z,6.03
2022-12-24T08:01:45.697Z,5.05
2022-12-24T08:04:36.459Z,8.02
2022-12-24T08:07:22.105Z,5.13
2022-12-24T08:10:08.106Z,6.43
2022-12-24T08:12:53.708Z,6.13
2022-12-24T08:15:39.224Z,6.70
2022-12-24T08:18:25.013Z,5.55
2022-12-24T08:21:10.438Z,6.10
2022-12-24T08:23:55.686Z,4.65
2022-12-24T08:26:41.251Z,7.65
2022-12-24T08:29:26.606Z,6.47
2022-12-24T08:32:12.273Z,6.93
2022-12-24T08:34:57.839Z,6.95
2022-12-24T08:37:43.343Z,5.93
2022-12-24T08:40:29.003Z,6.57
2022-12-24T08:43:14.997Z,7.03
2022-12-24T08:46:05.513Z,5.90
2022-12-24T08:48:51.059Z,6.03
2022-12-24T08:51:36.489Z,6.95
2022-12-24T08:54:23.654Z,7.47
2022-12-24T08:57:09.009Z,6.80
2022-12-24T08:59:54.654Z,6.38
2022-12-24T09:02:40.536Z,5.20
2022-12-24T09:05:26.413Z,5.65
2022-12-24T09:08:12.102Z,5.20
2022-12-24T09:11:07.584Z,6.78
2022-12-24T09:13:54.157Z,5.25
2022-12-24T09:16:40.034Z,5.95
2022-12-24T09:19:25.603Z,7.78
2022-12-24T09:22:10.948Z,5.05
2022-12-24T09:24:56.687Z,6.30
2022-12-24T09:27:42.175Z,7.07
2022-12-24T09:30:28.593Z,7.63
2022-12-24T09:33:14.014Z,4.90
2022-12-24T09:36:00.742Z,5.03
2022-12-24T09:38:46.911Z,4.75
2022-12-24T09:42:10.020Z,5.05
2022-12-24T09:45:02.534Z,4.93
2022-12-24T09:47:54.349Z,4.45
2022-12-24T09:50:51.775Z,5.82
2022-12-24T09:54:00.752Z,4.80
2022-12-24T09:56:48.104Z,4.65
2022-12-24T09:59:43.244Z,4.85
2022-12-24T10:02:28.631Z,4.50
2022-12-24T10:05:23.456Z,5.90
2022-12-24T10:08:17.985Z,4.97
2022-12-24T10:11:15.180Z,4.85
2022-12-24T10:14:10.848Z,4.65
2022-12-24T10:17:15.886Z,4.65
2022-12-24T10:20:33.799Z,3.85
2022-12-24T10:23:46.195Z,3.80
2022-12-24T10:26:39.850Z,6.38
2022-12-24T10:29:30.794Z,4.40
2022-12-24T10:32:30.014Z,4.32
2022-12-24T10:35:15.037Z,3.92
2022-12-24T10:38:00.962Z,4.57
2022-12-24T10:40:50.288Z,5.30
2022-12-24T10:43:38.364Z,4.97
2022-12-24T10:46:33.010Z,4.25
2022-12-24T10:49:27.216Z,5.57
2022-12-24T10:52:20.126Z,4.57
2022-12-24T10:55:11.692Z,3.92
2022-12-24T10:58:04.838Z,5.38
2022-12-24T11:00:52.200Z,6.68
2022-12-24T11:03:38.442Z,5.22
2022-12-24T11:06:23.966Z,4.85
2022-12-24T11:09:30.507Z,4.25
2022-12-24T11:12:25.236Z,4.07
2022-12-24T11:15:30.582Z,4.57
2022-12-24T11:18:16.562Z,4.95
2022-12-24T11:21:03.452Z,4.07
2022-12-24T11:23:57.762Z,4.53
2022-12-24T11:26:44.644Z,4.30
2022-12-24T11:29:29.830Z,4.88
2022-12-24T11:32:21.158Z,4.57
2022-12-24T11:35:16.179Z,4.47
2022-12-24T11:38:01.356Z,4.65
2022-12-24T11:40:50.887Z,5.10
2022-12-24T11:43:47.315Z,5.18
2022-12-24T11:46:42.022Z,6.80
2022-12-24T11:49:30.716Z,5.15
2022-12-24T11:52:25.082Z,6.32
2022-12-24T11:55:17.078Z,5.30
2022-12-24T11:58:22.290Z,5.95
2022-12-24T12:01:40.125Z,5.53
2022-12-24T12:04:29.203Z,4.97
2022-12-24T12:07:29.024Z,5.35
2022-12-24T12:10:31.769Z,6.75
2022-12-24T12:13:23.319Z,6.53
2022-12-24T12:16:23.999Z,5.53
2022-12-24T12:19:15.026Z,5.75
2022-12-24T12:22:05.150Z,6.30
2022-12-24T12:24:53.724Z,5.78
2022-12-24T12:27:44.315Z,5.70
2022-12-24T12:30:31.889Z,6.35
2022-12-24T12:33:17.505Z,6.68
2022-12-24T12:36:05.156Z,6.10
2022-12-24T12:38:51.563Z,6.75
2022-12-24T12:41:54.959Z,5.38
2022-12-24T12:44:49.177Z,6.93
2022-12-24T12:47:40.657Z,4.75
2022-12-24T12:50:33.583Z,4.95
2022-12-24T12:53:37.706Z,6.20
2022-12-24T12:56:30.282Z,4.13
2022-12-24T12:59:19.246Z,6.60
2022-12-24T13:02:25.224Z,5.07
2022-12-24T13:05:23.236Z,6.00
2022-12-24T13:08:13.241Z,6.90
2022-12-24T13:11:16.820Z,6.07
2022-12-24T13:14:08.262Z,7.03
2022-12-24T13:17:12.681Z,4.80
2022-12-24T13:20:18.295Z,7.22
2022-12-24T13:23:18.056Z,6.60
2022-12-24T13:26:12.091Z,4.43
2022-12-24T13:29:35.258Z,5.78
2022-12-24T13:32:20.908Z,5.43
2022-12-24T13:35:18.730Z,6.18
2022-12-24T13:38:29.552Z,5.07
2022-12-24T13:41:40.461Z,7.25
2022-12-24T13:44:32.939Z,6.10
2022-12-24T13:47:30.206Z,5.32
2022-12-24T13:50:24.429Z,6.10
2022-12-24T13:53:26.634Z,6.75
2022-12-24T13:56:17.824Z,5.80
2022-12-24T13:59:36.161Z,6.53
2022-12-24T14:02:24.520Z,6.40
2022-12-24T14:05:28.081Z,5.30
2022-12-24T14:08:28.351Z,5.38
2022-12-24T14:11:25.644Z,5.90
2022-12-24T14:14:26.886Z,5.53
2022-12-24T14:17:31.196Z,8.50
2022-12-24T14:20:17.013Z,6.70
2022-12-24T14:23:05.884Z,5.63
2022-12-24T14:25:52.274Z,8.02
2022-12-24T14:29:21.255Z,6.45
2022-12-24T14:32:15.780Z,5.95
2022-12-24T14:35:13.188Z,5.72
2022-12-24T14:38:00.471Z,5.30
2022-12-24T14:41:14.065Z,6.40
2022-12-24T14:44:14.147Z,7.22
2022-12-24T14:47:44.808Z,5.90
2022-12-24T14:50:55.566Z,5.95
2022-12-24T14:53:59.062Z,7.38
2022-12-24T14:59:29.656Z,5.78
2022-12-24T15:02:40.432Z,6.53
2022-12-24T15:05:29.594Z,5.82
2022-12-24T15:08:23.661Z,6.88
2022-12-24T15:14:00.564Z,8.18
2022-12-24T15:16:58.127Z,7.18
2022-12-24T15:19:47.263Z,7.50
2022-12-24T15:22:32.786Z,8.07
2022-12-24T15:25:38.789Z,6.25
2022-12-24T15:28:24.430Z,6.43
2022-12-24T15:31:16.660Z,6.72
2022-12-24T15:34:02.486Z,6.28
2022-12-24T15:36:48.123Z,7.50
2022-12-24T15:39:34.551Z,6.22
2022-12-24T15:42:22.586Z,6.65
2022-12-24T15:45:43.061Z,6.50
2022-12-24T15:48:31.448Z,6.53
2022-12-24T15:51:34.964Z,5.05
2022-12-24T15:54:25.268Z,6.60
2022-12-24T15:57:34.765Z,5.43
2022-12-24T16:00:33.229Z,5.35
2022-12-24T16:03:20.746Z,5.20
2022-12-24T16:06:08.812Z,4.82
2022-12-24T16:08:56.347Z,6.30
2022-12-24T16:11:41.972Z,7.20
2022-12-24T16:14:28.127Z,7.60
2022-12-24T16:17:23.468Z,5.72
2022-12-24T16:20:20.378Z,8.55
2022-12-24T16:23:07.076Z,7.38
2022-12-24T16:25:53.363Z,7.38
2022-12-24T16:28:39.041Z,9.43
2022-12-24T16:31:59.023Z,6.47
2022-12-24T16:34:44.591Z,5.55
2022-12-24T16:37:30.295Z,7.57
2022-12-24T16:40:20.626Z,5.10
2022-12-24T16:43:28.994Z,7.65
2022-12-24T16:46:14.553Z,7.57
2022-12-24T16:49:00.796Z,6.80
2022-12-24T16:51:47.096Z,7.85
2022-12-24T16:54:34.133Z,8.98
2022-12-24T16:57:19.670Z,6.63
2022-12-24T17:00:18.176Z,7.70
2022-12-24T17:03:04.869Z,7.40
2022-12-24T17:05:50.250Z,6.20
2022-12-24T17:08:36.463Z,8.50
2022-12-24T17:11:24.068Z,6.15
2022-12-24T17:14:19.868Z,8.93
2022-12-24T17:17:06.093Z,6.20
2022-12-24T17:19:51.847Z,6.43
2022-12-24T17:22:37.598Z,7.63
2022-12-24T17:25:23.140Z,5.90
2022-12-24T17:28:08.612Z,7.45
2022-12-24T17:30:54.300Z,6.93
2022-12-24T17:33:40.204Z,7.30
2022-12-24T17:36:26.031Z,8.25
2022-12-24T17:39:11.709Z,5.93
2022-12-24T17:41:57.395Z,7.57
2022-12-24T17:44:42.975Z,5.75
2022-12-24T17:47:28.378Z,9.13
2022-12-24T17:50:14.037Z,8.13
2022-12-24T17:52:59.332Z,5.00
2022-12-24T17:55:45.155Z,8.63
2022-12-24T17:58:31.470Z,6.78
2022-12-24T18:01:20.782Z,4.70
2022-12-24T18:04:07.224Z,6.95
2022-12-24T18:07:01.483Z,6.85
2022-12-24T18:09:48.072Z,5.38
2022-12-24T18:12:33.942Z,6.22
2022-12-24T18:15:20.291Z,5.80
2022-12-24T18:18:07.371Z,5.65
2022-12-24T18:20:52.749Z,6.90
2022-12-24T18:23:40.960Z,5.50
2022-12-24T18:26:28.914Z,4.70
2022-12-24T18:29:15.210Z,4.45
2022-12-24T18:32:00.585Z,5.90
2022-12-24T18:34:46.406Z,5.03
2022-12-24T18:37:31.989Z,4.85
2022-12-24T18:40:18.112Z,5.95
2022-12-24T18:43:03.804Z,4.53
2022-12-24T18:45:49.245Z,4.90
2022-12-24T18:48:35.376Z,4.63
2022-12-24T18:51:22.727Z,4.78
2022-12-24T18:54:08.599Z,3.90
2022-12-24T18:56:53.992Z,4.25
2022-12-24T18:59:39.496Z,4.47
2022-12-24T19:02:25.102Z,4.63
2022-12-24T19:05:10.581Z,4.72
2022-12-24T19:07:56.550Z,3.67
2022-12-24T19:10:42.870Z,3.90
2022-12-24T19:13:28.221Z,3.83
2022-12-24T19:16:15.195Z,3.58
2022-12-24T19:19:02.167Z,3.45
2022-12-24T19:21:47.758Z,2.80
2022-12-24T19:24:33.321Z,3.83
2022-12-24T19:27:19.082Z,2.90
2022-12-24T19:30:05.721Z,3.75
2022-12-24T19:32:51.753Z,3.08
2022-12-24T19:35:37.428Z,4.70
2022-12-24T19:38:22.936Z,3.03
2022-12-24T19:41:14.168Z,3.10
2022-12-24T19:44:01.834Z,3.88
2022-12-24T19:46:47.443Z,2.90
2022-12-24T19:49:33.109Z,3.10
2022-12-24T19:52:18.766Z,6.53
2022-12-24T19:55:04.751Z,3.72
2022-12-24T19:57:52.599Z,9.23
2022-12-24T20:00:38.207Z,4.05
2022-12-24T20:03:23.830Z,4.60
2022-12-24T20:06:09.318Z,3.17
2022-12-24T20:09:00.023Z,3.50
2022-12-24T20:11:45.547Z,2.72
2022-12-24T20:14:31.128Z,2.53
2022-12-24T20:17:16.667Z,4.07
2022-12-24T20:20:02.162Z,2.42
2022-12-24T20:22:48.423Z,4.57
2022-12-24T20:25:35.416Z,2.50
2022-12-24T20:28:20.698Z,3.10
2022-12-24T20:31:17.754Z,2.55
2022-12-24T20:34:05.288Z,2.25
2022-12-24T20:36:50.863Z,3.10
2022-12-24T20:39:36.479Z,2.13
2022-12-24T20:42:22.189Z,2.60
2022-12-24T20:45:07.786Z,2.08
2022-12-24T20:47:53.464Z,2.70
2022-12-24T20:50:41.158Z,2.80
2022-12-24T20:53:27.209Z,2.35
2022-12-24T20:56:14.061Z,2.30
2022-12-24T20:59:01.119Z,2.45
2022-12-24T21:01:47.336Z,2.85
2022-12-24T21:04:32.905Z,2.50
2022-12-24T21:07:18.694Z,3.38
2022-12-24T21:10:05.208Z,4.22
2022-12-24T21:12:52.151Z,2.63
2022-12-24T21:15:42.323Z,3.35
2022-12-24T21:18:27.956Z,2.50
2022-12-24T21:21:13.646Z,2.50
2022-12-24T21:23:58.948Z,3.10
2022-12-24T21:26:44.800Z,2.67
2022-12-24T21:29:31.197Z,2.97
2022-12-24T21:32:16.692Z,2.90
2022-12-24T21:35:02.456Z,2.78
2022-12-24T21:37:48.387Z,1.77
2022-12-24T21:40:33.989Z,2.47
2022-12-24T21:43:20.045Z,1.85
2022-12-24T21:46:15.507Z,2.13
2022-12-24T21:49:19.521Z,2.65
2022-12-24T21:52:05.184Z,2.80
2022-12-24T21:54:50.837Z,3.33
2022-12-24T21:57:54.063Z,2.38
2022-12-24T22:00:40.016Z,2.45
2022-12-24T22:03:25.660Z,2.30
2022-12-24T22:06:31.440Z,2.03
2022-12-24T22:09:35.200Z,4.90
2022-12-24T22:12:20.837Z,2.50
2022-12-24T22:15:07.385Z,2.40
2022-12-24T22:17:53.163Z,2.55
2022-12-24T22:20:39.976Z,2.40
2022-12-24T22:23:25.337Z,3.97
2022-12-24T22:26:15.551Z,2.65
2022-12-24T22:29:00.685Z,2.30
2022-12-24T22:31:46.825Z,2.88
2022-12-24T22:34:32.910Z,2.85
2022-12-24T22:37:18.422Z,2.95
2022-12-24T22:40:04.034Z,3.15
2022-12-24T22:42:49.118Z,3.10
2022-12-24T22:45:34.568Z,2.35
2022-12-24T22:48:20.040Z,3.97
2022-12-24T22:51:10.674Z,2.95
2022-12-24T22:53:56.888Z,2.83
2022-12-24T22:56:42.505Z,2.50
2022-12-24T22:59:27.963Z,2.80
2022-12-24T23:02:14.118Z,2.88
2022-12-24T23:04:59.424Z,3.03
2022-12-24T23:07:45.444Z,3.33
2022-12-24T23:10:31.534Z,3.00
2022-12-24T23:13:36.521Z,2.78
2022-12-24T23:19:07.248Z,2.60
2022-12-24T23:21:52.637Z,2.20
2022-12-24T23:24:41.578Z,2.78
2022-12-24T23:27:27.569Z,3.03
2022-12-24T23:30:13.122Z,2.90
2022-12-24T23:32:58.983Z,2.33
2022-12-24T23:35:44.699Z,2.45
2022-12-24T23:38:30.244Z,2.00
2022-12-24T23:41:18.788Z,4.00
2022-12-24T23:44:04.466Z,1.83
2022-12-24T23:46:49.798Z,2.30
2022-12-24T23:49:36.381Z,2.20
2022-12-24T23:52:22.719Z,2.33
2022-12-24T23:55:08.188Z,3.63
2022-12-24T23:57:54.176Z,2.40
